Time;durP1;ratioP1;P1;durP2;ratioP2;P2;SDS_P1;SDS_P2;PMS_P1;PMS_P2;Temp;Humidity;BMP_temperature;BMP_pressure;BME280_temperature;BME280_humidity;BME280_pressure;Samples;Min_cycle;Max_cycle;Signal;HPM_P1;HPM_P2
2022/06/23 00:00:19;;;;;;;1.43;0.90;;;19.90;80.20;;;;;;4928771;29;20966;-75
2022/06/23 00:02:46;;;;;;;1.50;0.90;;;19.90;79.80;;;;;;4936758;28;20526;-75
2022/06/23 00:05:17;;;;;;;1.47;0.90;;;19.90;79.30;;;;;;4932155;29;20484;-75
2022/06/23 00:07:47;;;;;;;1.43;0.90;;;19.90;79.40;;;;;;4937966;28;20528;-78
2022/06/23 00:10:16;;;;;;;1.43;0.90;;;19.90;80.50;;;;;;4932773;29;20486;-75
2022/06/23 00:12:45;;;;;;;1.47;0.90;;;19.80;80.60;;;;;;4935755;28;20483;-77
2022/06/23 00:15:19;;;;;;;1.47;0.90;;;19.80;80.60;;;;;;4930609;29;20476;-75
2022/06/23 00:17:48;;;;;;;1.43;0.90;;;19.80;80.40;;;;;;4933114;29;20483;-77
2022/06/23 00:20:19;;;;;;;1.43;0.90;;;19.70;80.50;;;;;;4934572;29;20474;-77
2022/06/23 00:22:50;;;;;;;1.43;0.90;;;19.70;80.60;;;;;;4937770;28;20698;-78
2022/06/23 00:25:35;;;;;;;1.50;0.90;;;19.70;80.60;;;;;;4934261;29;20875;-78
2022/06/23 00:28:02;;;;;;;1.50;0.90;;;19.60;81.10;;;;;;4939563;28;20490;-77
2022/06/23 00:30:36;;;;;;;1.50;0.90;;;19.60;81.00;;;;;;4934710;29;20464;-77
2022/06/23 00:33:07;;;;;;;1.43;0.90;;;19.60;80.90;;;;;;4936618;29;20486;-78
2022/06/23 00:35:35;;;;;;;1.47;0.90;;;19.50;81.90;;;;;;4934284;29;20953;-78
2022/06/23 00:38:02;;;;;;;1.47;0.90;;;19.50;82.00;;;;;;4933924;29;20532;-78
2022/06/23 00:40:29;;;;;;;1.47;0.90;;;19.50;81.70;;;;;;4934440;29;20471;-77
2022/06/23 00:43:00;;;;;;;1.47;0.90;;;19.50;82.50;;;;;;4930515;29;20499;-77
2022/06/23 00:45:33;;;;;;;1.47;0.90;;;19.40;82.00;;;;;;4934847;29;20491;-78
2022/06/23 00:48:06;;;;;;;1.50;0.90;;;19.40;82.20;;;;;;4942198;28;20935;-78
2022/06/23 00:50:39;;;;;;;1.43;0.90;;;19.30;82.60;;;;;;4936629;29;20888;-78
2022/06/23 00:53:24;;;;;;;1.50;0.90;;;19.30;82.10;;;;;;4941744;28;20491;-78
2022/06/23 00:55:59;;;;;;;1.43;0.90;;;19.30;82.40;;;;;;4937412;29;20460;-77
2022/06/23 00:58:35;;;;;;;1.43;0.90;;;19.30;82.60;;;;;;4936904;29;20463;-78
2022/06/23 01:01:10;;;;;;;1.47;0.90;;;19.30;82.60;;;;;;4933839;29;20460;-77
2022/06/23 01:03:41;;;;;;;1.47;0.90;;;19.30;82.70;;;;;;4931753;29;20987;-76
2022/06/23 01:06:16;;;;;;;1.47;0.97;;;19.20;82.50;;;;;;4925407;28;20508;-77
2022/06/23 01:08:49;;;;;;;1.43;0.90;;;19.20;83.90;;;;;;4943353;29;20502;-77
2022/06/23 01:11:24;;;;;;;1.50;1.00;;;19.20;83.20;;;;;;4923043;28;20499;-77
2022/06/23 01:14:06;;;;;;;1.43;0.90;;;19.20;82.80;;;;;;4941771;29;20516;-77
2022/06/23 01:16:41;;;;;;;1.47;0.97;;;19.20;82.40;;;;;;4932060;29;20459;-77
2022/06/23 01:19:25;;;;;;;1.50;0.90;;;19.20;82.70;;;;;;4931417;29;20478;-77
2022/06/23 01:21:57;;;;;;;1.43;0.90;;;19.20;82.60;;;;;;4928060;28;20489;-76
2022/06/23 01:24:30;;;;;;;1.43;1.00;;;19.20;82.60;;;;;;4944699;28;20473;-77
2022/06/23 01:27:09;;;;;;;1.40;0.93;;;19.30;82.50;;;;;;4945433;29;20495;-77
2022/06/23 01:29:42;;;;;;;1.43;0.90;;;19.30;83.00;;;;;;4950726;28;20837;-77
2022/06/23 01:32:17;;;;;;;1.43;0.90;;;19.30;83.00;;;;;;4949513;28;20482;-76
2022/06/23 01:34:49;;;;;;;1.50;0.90;;;19.30;83.60;;;;;;4951680;28;20477;-76
2022/06/23 01:37:22;;;;;;;1.47;0.90;;;19.30;82.90;;;;;;4941305;28;20494;-77
2022/06/23 01:39:54;;;;;;;1.43;0.90;;;19.40;83.50;;;;;;4934918;29;20983;-77
2022/06/23 01:42:25;;;;;;;1.50;0.90;;;19.40;83.40;;;;;;4930328;29;20934;-76
2022/06/23 01:45:01;;;;;;;1.43;0.90;;;19.40;82.90;;;;;;4926023;29;20464;-76
2022/06/23 01:47:33;;;;;;;1.47;0.97;;;19.40;83.30;;;;;;4931436;28;20884;-77
2022/06/23 01:50:28;;;;;;;2.43;2.23;;;19.40;83.40;;;;;;4933401;29;20495;-76
2022/06/23 01:53:14;;;;;;;1.40;0.90;;;19.40;82.80;;;;;;4934973;28;20522;-77
2022/06/23 01:55:56;;;;;;;1.40;0.87;;;19.40;83.60;;;;;;4923170;29;20479;-77
2022/06/23 01:58:24;;;;;;;1.43;0.90;;;19.40;83.80;;;;;;4929936;29;20467;-77
2022/06/23 02:00:57;;;;;;;1.43;0.90;;;19.40;83.90;;;;;;4920669;28;20487;-76
2022/06/23 02:03:28;;;;;;;1.43;0.90;;;19.40;83.60;;;;;;4938326;29;20468;-77
2022/06/23 02:06:01;;;;;;;1.47;0.90;;;19.40;83.90;;;;;;4923289;28;20859;-77
2022/06/23 02:08:35;;;;;;;1.50;0.90;;;19.40;83.60;;;;;;4942653;29;20463;-77
2022/06/23 02:11:12;;;;;;;1.47;0.90;;;19.40;84.40;;;;;;4913359;28;20474;-76
2022/06/23 02:13:47;;;;;;;1.47;0.90;;;19.40;84.40;;;;;;4933606;29;20853;-76
2022/06/23 02:16:22;;;;;;;1.47;0.97;;;19.40;84.40;;;;;;4924566;28;20514;-77
2022/06/23 02:18:55;;;;;;;1.47;0.90;;;19.30;84.70;;;;;;4940286;29;20834;-77
2022/06/23 02:21:29;;;;;;;1.43;0.90;;;19.30;84.70;;;;;;4927012;29;20494;-76
2022/06/23 02:24:01;;;;;;;1.43;0.90;;;19.30;85.50;;;;;;4929546;29;20489;-78
2022/06/23 02:26:33;;;;;;;1.43;1.00;;;19.30;85.50;;;;;;4923916;28;20483;-77
2022/06/23 02:29:06;;;;;;;1.40;0.90;;;19.20;85.70;;;;;;4930835;29;20472;-77
2022/06/23 02:31:42;;;;;;;1.50;0.97;;;19.20;85.20;;;;;;4921162;28;20498;-77
2022/06/23 02:34:17;;;;;;;1.43;0.90;;;19.20;85.80;;;;;;4934474;29;20463;-77
2022/06/23 02:37:02;;;;;;;1.43;0.90;;;19.20;85.70;;;;;;4928685;28;20478;-77
2022/06/23 02:39:36;;;;;;;1.43;0.90;;;19.20;85.90;;;;;;4919740;29;20479;-77
2022/06/23 02:42:13;;;;;;;1.43;0.90;;;19.20;85.40;;;;;;4951152;23;20502;-81
2022/06/23 02:45:01;;;;;;;1.47;0.93;;;19.20;85.40;;;;;;4942573;29;20535;-81
2022/06/23 02:47:47;;;;;;;1.43;0.90;;;19.20;85.70;;;;;;4935352;29;20498;-80
2022/06/23 02:50:38;;;;;;;1.47;0.90;;;19.20;86.00;;;;;;4938522;29;20569;-81
2022/06/23 02:53:20;;;;;;;1.43;0.90;;;19.20;85.70;;;;;;4961685;28;20486;-78
2022/06/23 02:56:18;;;;;;;1.43;0.90;;;19.10;86.20;;;;;;4949208;28;20526;-83
2022/06/23 02:58:49;;;;;;;1.47;1.00;;;19.10;86.90;;;;;;4977274;28;20458;-79
2022/06/23 03:01:23;;;;;;;1.43;1.00;;;19.10;86.80;;;;;;4965853;28;20464;-79
2022/06/23 03:04:00;;;;;;;1.47;1.00;;;19.10;86.80;;;;;;4975104;28;20474;-82
2022/06/23 03:06:40;;;;;;;1.40;0.90;;;19.10;86.30;;;;;;4975994;28;20484;-81
2022/06/23 03:09:12;;;;;;;1.43;0.97;;;19.20;86.60;;;;;;4976137;28;21005;-81
2022/06/23 03:11:52;;;;;;;1.47;1.00;;;19.20;86.60;;;;;;4975265;28;20462;-83
2022/06/23 03:14:37;;;;;;;1.40;0.90;;;19.30;86.50;;;;;;4970724;28;20489;-81
2022/06/23 03:17:14;;;;;;;1.40;0.90;;;19.30;86.50;;;;;;4977992;28;20454;-81
2022/06/23 03:19:47;;;;;;;1.40;0.90;;;19.30;86.50;;;;;;4970953;28;20466;-82
2022/06/23 03:22:21;;;;;;;1.43;0.90;;;19.30;86.20;;;;;;4976612;28;20485;-80
2022/06/23 03:24:54;;;;;;;1.43;1.00;;;19.40;85.70;;;;;;4971114;28;20461;-82
2022/06/23 03:27:29;;;;;;;1.43;0.90;;;19.40;85.80;;;;;;4957651;28;21155;-84
2022/06/23 03:30:01;;;;;;;1.50;0.93;;;19.40;85.20;;;;;;4970755;28;20481;-84
2022/06/23 03:32:32;;;;;;;1.47;0.90;;;19.50;85.40;;;;;;4969953;28;21038;-82
2022/06/23 03:35:09;;;;;;;1.40;0.90;;;19.50;85.40;;;;;;4979111;28;20923;-84
2022/06/23 03:37:46;;;;;;;1.40;0.90;;;19.60;85.10;;;;;;4978397;28;20457;-83
2022/06/23 03:43:17;;;;;;;1.40;0.90;;;19.60;84.70;;;;;;4964031;28;20506;-82
2022/06/23 03:45:51;;;;;;;1.43;0.90;;;19.70;84.20;;;;;;4977016;28;20465;-82
2022/06/23 03:48:25;;;;;;;2.80;2.60;;;19.70;84.70;;;;;;4967940;28;20493;-85
2022/06/23 03:50:58;;;;;;;1.43;0.90;;;19.70;85.10;;;;;;4970484;28;20485;-82
2022/06/23 03:53:30;;;;;;;1.47;0.90;;;19.60;85.20;;;;;;4977817;28;20517;-78
2022/06/23 03:56:00;;;;;;;1.43;0.90;;;19.60;85.10;;;;;;4961865;28;20549;-80
2022/06/23 03:58:40;;;;;;;1.50;1.00;;;19.60;85.50;;;;;;4992162;28;20450;-85
2022/06/23 04:01:15;;;;;;;1.47;0.90;;;19.60;85.20;;;;;;4968510;28;20467;-83
2022/06/23 04:03:46;;;;;;;1.43;0.93;;;19.60;86.10;;;;;;4968744;28;20489;-84
2022/06/23 04:06:36;;;;;;;1.47;0.90;;;19.60;85.50;;;;;;4969456;28;20536;-80
2022/06/23 04:09:10;;;;;;;1.50;0.90;;;19.60;85.90;;;;;;4972513;28;20462;-80
2022/06/23 04:11:57;;;;;;;1.40;0.90;;;19.70;85.70;;;;;;4955507;28;20475;-81
2022/06/23 04:14:41;;;;;;;1.47;0.90;;;19.80;85.10;;;;;;4964451;28;20549;-82
2022/06/23 04:17:14;;;;;;;1.50;0.90;;;19.90;84.20;;;;;;4967454;28;20482;-81
2022/06/23 04:19:45;;;;;;;1.50;0.90;;;20.00;83.40;;;;;;4970596;28;20521;-84
2022/06/23 04:22:25;;;;;;;1.43;0.90;;;20.10;82.60;;;;;;4971680;28;20501;-82
2022/06/23 04:24:56;;;;;;;1.43;0.90;;;20.10;82.50;;;;;;4978076;28;20553;-80
2022/06/23 04:27:30;;;;;;;1.43;0.90;;;20.20;82.50;;;;;;4964406;28;20527;-80
2022/06/23 04:30:00;;;;;;;1.50;0.90;;;20.30;82.40;;;;;;4970390;28;20748;-81
2022/06/23 04:32:32;;;;;;;1.43;0.90;;;20.30;82.70;;;;;;4975840;28;20499;-82
2022/06/23 04:35:10;;;;;;;1.43;0.90;;;20.40;82.70;;;;;;4969791;28;20767;-82
2022/06/23 04:37:45;;;;;;;1.47;0.90;;;20.40;82.90;;;;;;4972497;28;20536;-82
2022/06/23 04:40:22;;;;;;;1.43;0.90;;;20.50;82.60;;;;;;4971763;28;20554;-82
2022/06/23 04:42:57;;;;;;;1.47;0.93;;;20.50;82.70;;;;;;4982224;28;20489;-81
2022/06/23 04:45:52;;;;;;;1.47;0.90;;;20.70;82.80;;;;;;4973278;28;20461;-83
2022/06/23 04:48:24;;;;;;;1.47;0.90;;;20.80;82.00;;;;;;4967280;28;20496;-83
2022/06/23 04:50:56;;;;;;;1.43;0.90;;;21.00;81.60;;;;;;4978570;28;20473;-82
2022/06/23 04:53:42;;;;;;;1.50;0.90;;;21.10;80.90;;;;;;4971281;28;20828;-82
2022/06/23 04:56:23;;;;;;;1.50;1.00;;;21.20;80.60;;;;;;4966633;28;20488;-80
2022/06/23 04:58:53;;;;;;;1.43;0.90;;;21.40;80.10;;;;;;4977646;28;20466;-77
2022/06/23 05:01:25;;;;;;;1.43;0.90;;;21.50;80.10;;;;;;4977278;28;20470;-83
2022/06/23 05:04:11;;;;;;;1.43;0.90;;;21.50;79.80;;;;;;4977472;28;20502;-84
2022/06/23 05:06:48;;;;;;;1.47;0.90;;;21.60;79.70;;;;;;4969076;28;20831;-81
2022/06/23 05:09:25;;;;;;;1.43;0.90;;;21.70;79.50;;;;;;4976789;28;20557;-83
2022/06/23 05:11:56;;;;;;;1.43;0.90;;;21.90;79.20;;;;;;4969682;28;20557;-84
2022/06/23 05:14:29;;;;;;;1.50;0.90;;;22.00;78.90;;;;;;4971303;28;20488;-80
2022/06/23 05:17:05;;;;;;;1.43;0.87;;;22.10;78.70;;;;;;4967202;28;20537;-83
2022/06/23 05:19:38;;;;;;;1.47;0.90;;;22.20;78.50;;;;;;4970624;28;20496;-81
2022/06/23 05:22:16;;;;;;;1.47;0.90;;;22.40;78.30;;;;;;4965474;28;20490;-83
2022/06/23 05:24:50;;;;;;;1.47;1.00;;;22.60;78.10;;;;;;4978539;28;20501;-83
2022/06/23 05:27:23;;;;;;;1.40;0.90;;;22.60;77.90;;;;;;4975122;28;20517;-83
2022/06/23 05:29:58;;;;;;;1.47;0.90;;;22.70;77.70;;;;;;4972904;28;20476;-84
2022/06/23 05:32:32;;;;;;;1.47;0.90;;;22.80;77.40;;;;;;4961382;28;20569;-81
2022/06/23 05:35:07;;;;;;;1.47;0.90;;;22.80;77.40;;;;;;4970927;28;20573;-83
2022/06/23 05:37:39;;;;;;;1.47;0.90;;;22.90;77.70;;;;;;4967509;28;20462;-80
2022/06/23 05:40:21;;;;;;;1.50;1.20;;;23.00;77.60;;;;;;4976763;28;20462;-82
2022/06/23 05:42:51;;;;;;;1.50;0.90;;;23.10;77.60;;;;;;4968744;28;20558;-84
2022/06/23 05:45:23;;;;;;;1.50;1.03;;;23.20;77.70;;;;;;4972633;28;20497;-85
2022/06/23 05:47:51;;;;;;;1.50;1.00;;;23.30;77.80;;;;;;4971901;28;20834;-82
2022/06/23 05:50:24;;;;;;;1.50;0.90;;;23.40;78.00;;;;;;4976403;28;20522;-82
2022/06/23 05:52:56;;;;;;;1.47;0.90;;;23.60;77.90;;;;;;4963318;28;20497;-80
2022/06/23 05:55:35;;;;;;;1.43;0.90;;;23.80;77.70;;;;;;4973943;28;20502;-83
2022/06/23 05:58:12;;;;;;;1.50;0.90;;;23.80;77.80;;;;;;4974551;28;20465;-81
2022/06/23 06:00:49;;;;;;;1.40;0.90;;;23.80;77.90;;;;;;4976615;28;20557;-82
2022/06/23 06:03:26;;;;;;;1.43;0.90;;;24.00;77.80;;;;;;4971772;28;20493;-80
2022/06/23 06:05:56;;;;;;;1.40;0.87;;;24.10;78.80;;;;;;4963330;28;20946;-80
2022/06/23 06:08:28;;;;;;;1.47;1.00;;;24.20;78.30;;;;;;4974644;28;20490;-84
2022/06/23 06:11:01;;;;;;;1.50;1.00;;;24.30;78.00;;;;;;4965327;28;20557;-81
2022/06/23 06:13:32;;;;;;;1.50;1.10;;;24.40;78.00;;;;;;4967139;28;20487;-78
2022/06/23 06:16:04;;;;;;;1.50;0.90;;;24.40;78.40;;;;;;4967204;28;20498;-80
2022/06/23 06:18:36;;;;;;;1.43;0.90;;;24.40;78.30;;;;;;4968190;28;20442;-82
2022/06/23 06:21:06;;;;;;;1.50;0.90;;;24.50;77.40;;;;;;4962240;28;20477;-79
2022/06/23 06:23:39;;;;;;;1.60;1.10;;;24.60;77.50;;;;;;4984206;28;20553;-79
2022/06/23 06:26:13;;;;;;;1.47;0.90;;;24.70;76.90;;;;;;4967001;28;20478;-82
2022/06/23 06:28:40;;;;;;;1.50;0.90;;;24.80;76.90;;;;;;4974011;28;20678;-82
2022/06/23 06:31:16;;;;;;;1.47;0.90;;;25.10;76.60;;;;;;4969535;28;20524;-79
2022/06/23 06:33:53;;;;;;;1.47;0.90;;;25.30;76.00;;;;;;4987852;28;20552;-82
2022/06/23 06:36:37;;;;;;;1.50;0.90;;;25.40;75.80;;;;;;4974015;28;20497;-79
2022/06/23 06:39:15;;;;;;;1.47;0.90;;;25.40;75.90;;;;;;4969880;28;20635;-84
2022/06/23 06:41:45;;;;;;;1.47;0.90;;;25.70;75.30;;;;;;4970122;28;20495;-81
2022/06/23 06:44:13;;;;;;;1.50;0.90;;;25.80;75.60;;;;;;4967593;28;20494;-80
2022/06/23 06:46:41;;;;;;;1.60;1.10;;;26.00;75.00;;;;;;4963142;28;20569;-81
2022/06/23 06:49:15;;;;;;;1.50;1.00;;;26.10;74.90;;;;;;4976680;28;20594;-81
2022/06/23 06:51:42;;;;;;;1.50;1.20;;;26.30;74.80;;;;;;4965232;28;20576;-81
2022/06/23 06:54:16;;;;;;;1.50;0.90;;;26.50;74.40;;;;;;4975119;28;20512;-82
2022/06/23 06:56:51;;;;;;;1.50;0.80;;;26.50;74.60;;;;;;4974559;28;20465;-82
2022/06/23 06:59:24;;;;;;;1.50;1.10;;;26.80;74.40;;;;;;4977105;28;20560;-79
2022/06/23 07:01:57;;;;;;;1.43;0.90;;;26.70;74.30;;;;;;4975618;28;20517;-82
2022/06/23 07:04:27;;;;;;;1.50;0.90;;;26.90;74.30;;;;;;4973233;28;20463;-81
2022/06/23 07:06:59;;;;;;;1.50;1.10;;;26.90;74.40;;;;;;4964311;28;20512;-79
2022/06/23 07:09:32;;;;;;;1.50;0.90;;;27.00;74.50;;;;;;4975816;28;20469;-81
2022/06/23 07:12:09;;;;;;;1.60;1.23;;;27.20;74.10;;;;;;4964159;28;20489;-78
2022/06/23 07:14:43;;;;;;;1.43;0.90;;;27.30;73.80;;;;;;4970460;28;20461;-84
2022/06/23 07:17:27;;;;;;;1.60;1.00;;;27.40;73.20;;;;;;4969703;28;20564;-79
2022/06/23 07:19:59;;;;;;;1.50;0.80;;;27.60;73.10;;;;;;4974206;28;20469;-83
2022/06/23 07:22:29;;;;;;;1.47;0.90;;;27.80;72.50;;;;;;4964634;28;20504;-82
2022/06/23 07:25:04;;;;;;;1.43;0.80;;;27.70;72.40;;;;;;4977907;28;20472;-79
2022/06/23 07:27:37;;;;;;;1.50;1.00;;;27.70;73.10;;;;;;4974539;28;20457;-81
2022/06/23 07:30:11;;;;;;;1.43;0.80;;;27.80;72.90;;;;;;4979274;28;20583;-80
2022/06/23 07:32:45;;;;;;;1.50;1.13;;;28.00;72.80;;;;;;4972611;28;20512;-80
2022/06/23 07:35:23;;;;;;;1.47;0.80;;;28.20;72.60;;;;;;4978680;28;20500;-77
2022/06/23 07:37:59;;;;;;;1.40;0.90;;;28.20;72.50;;;;;;4966037;28;20481;-77
2022/06/23 07:40:28;;;;;;;2.07;1.87;;;28.50;72.60;;;;;;4974791;28;20559;-77
2022/06/23 07:43:03;;;;;;;1.47;0.80;;;28.70;72.10;;;;;;4970004;28;20918;-77
2022/06/23 07:45:37;;;;;;;1.50;0.80;;;28.60;73.00;;;;;;4976444;28;20456;-80
2022/06/23 07:48:05;;;;;;;1.40;0.80;;;28.60;73.90;;;;;;4965562;28;20485;-79
2022/06/23 07:50:32;;;;;;;1.47;0.80;;;28.70;74.20;;;;;;4974066;28;20556;-77
2022/06/23 07:53:00;;;;;;;1.43;0.80;;;28.50;73.90;;;;;;4962094;28;20584;-77
2022/06/23 07:55:30;;;;;;;1.47;0.90;;;28.40;73.80;;;;;;4971649;28;20465;-77
2022/06/23 07:58:00;;;;;;;1.43;0.80;;;28.50;74.50;;;;;;4962653;28;20584;-77
2022/06/23 08:00:29;;;;;;;1.47;0.90;;;28.60;74.10;;;;;;4975091;28;20976;-78
2022/06/23 08:03:00;;;;;;;1.50;0.90;;;28.70;73.70;;;;;;4962466;28;20519;-79
2022/06/23 08:05:33;;;;;;;1.47;0.80;;;28.90;73.40;;;;;;4973639;28;20651;-78
2022/06/23 08:08:01;;;;;;;1.47;0.80;;;29.00;73.90;;;;;;4969373;28;20514;-79
2022/06/23 08:10:31;;;;;;;1.50;0.80;;;29.10;73.00;;;;;;4965350;28;20469;-78
2022/06/23 08:13:04;;;;;;;1.50;1.00;;;29.10;73.20;;;;;;4961173;28;20493;-79
2022/06/23 08:18:28;;;;;;;1.47;0.80;;;29.40;72.50;;;;;;4960450;28;20492;-80
2022/06/23 08:21:02;;;;;;;1.50;0.80;;;29.60;72.60;;;;;;4969057;28;20466;-80
2022/06/23 08:23:34;;;;;;;1.43;0.80;;;29.60;71.90;;;;;;4970079;28;20544;-77
2022/06/23 08:26:02;;;;;;;1.50;0.80;;;29.60;71.80;;;;;;4964244;28;20469;-78
2022/06/23 08:28:30;;;;;;;1.50;0.80;;;29.70;71.70;;;;;;4974163;28;20558;-81
2022/06/23 08:30:57;;;;;;;1.73;1.33;;;30.00;70.60;;;;;;4973566;28;20465;-80
2022/06/23 08:33:25;;;;;;;1.47;0.80;;;30.20;70.10;;;;;;4967598;28;21032;-78
2022/06/23 08:35:54;;;;;;;1.40;0.90;;;30.20;69.20;;;;;;4962797;28;20465;-79
2022/06/23 08:38:25;;;;;;;1.40;0.80;;;30.20;69.40;;;;;;4972568;28;21013;-79
2022/06/23 08:41:04;;;;;;;1.47;0.80;;;30.20;70.20;;;;;;4973187;28;20840;-79
2022/06/23 08:43:38;;;;;;;1.47;0.80;;;30.20;68.70;;;;;;4982640;23;20525;-77
2022/06/23 08:46:11;;;;;;;1.47;0.80;;;30.40;69.10;;;;;;4946166;29;20466;-78
2022/06/23 08:48:43;;;;;;;1.50;0.90;;;30.60;68.30;;;;;;4950436;28;20455;-78
2022/06/23 08:51:18;;;;;;;1.50;0.80;;;30.80;68.10;;;;;;4950618;28;20470;-78
2022/06/23 08:53:57;;;;;;;1.40;0.80;;;30.60;67.40;;;;;;4954822;28;20481;-77
2022/06/23 08:56:30;;;;;;;1.43;0.80;;;30.70;66.80;;;;;;4965249;28;20492;-77
2022/06/23 08:59:05;;;;;;;1.50;0.80;;;30.50;67.60;;;;;;4979425;28;20504;-77
2022/06/23 09:01:38;;;;;;;1.50;0.80;;;30.40;68.30;;;;;;4970104;28;20496;-76
2022/06/23 09:04:11;;;;;;;1.50;0.80;;;30.40;68.30;;;;;;4971548;28;20481;-76
2022/06/23 09:06:45;;;;;;;1.40;0.80;;;30.60;68.40;;;;;;4968121;28;20480;-77
2022/06/23 09:09:27;;;;;;;1.43;0.80;;;30.70;67.80;;;;;;4978801;28;20466;-78
2022/06/23 09:12:05;;;;;;;1.47;0.80;;;30.80;67.80;;;;;;4959880;28;20481;-77
2022/06/23 09:15:07;;;;;;;1.50;0.90;;;30.90;67.30;;;;;;4969812;28;20481;-77
2022/06/23 09:17:56;;;;;;;1.50;1.00;;;31.00;67.90;;;;;;4972547;28;20486;-77
2022/06/23 09:20:42;;;;;;;1.50;1.00;;;31.30;67.30;;;;;;4970585;28;20466;-77
2022/06/23 09:23:39;;;;;;;1.50;0.83;;;31.60;66.40;;;;;;4973436;28;20496;-77
2022/06/23 09:26:16;;;;;;;1.93;1.67;;;31.90;65.70;;;;;;4963877;28;22477;-77
2022/06/23 09:28:53;;;;;;;1.47;0.80;;;32.10;65.30;;;;;;4978106;28;20571;-77
2022/06/23 09:31:29;;;;;;;1.43;0.80;;;32.20;64.10;;;;;;4969800;28;20565;-74
2022/06/23 09:34:12;;;;;;;1.47;0.80;;;32.10;62.90;;;;;;4969508;28;20744;-77
2022/06/23 09:37:00;;;;;;;1.50;0.90;;;32.10;62.20;;;;;;4966915;28;20319;-77
2022/06/23 09:40:06;;;;;;;1.47;0.87;;;31.90;62.30;;;;;;4978694;28;20619;-76
2022/06/23 09:43:00;;;;;;;1.43;0.80;;;31.70;63.60;;;;;;4967924;28;20224;-76
2022/06/23 09:45:48;;;;;;;1.40;0.80;;;32.10;62.90;;;;;;4968055;28;20244;-77
2022/06/23 09:48:49;;;;;;;1.47;0.80;;;32.20;61.60;;;;;;4956283;28;20221;-78
2022/06/23 09:51:44;;;;;;;1.43;0.80;;;32.40;63.00;;;;;;4970384;28;20291;-78
2022/06/23 09:54:45;;;;;;;1.43;0.80;;;32.90;61.80;;;;;;4966695;28;20237;-77
2022/06/23 09:57:41;;;;;;;1.67;1.17;;;33.20;61.20;;;;;;4966295;28;20228;-78
2022/06/23 10:00:12;;;;;;;1.43;0.80;;;33.40;59.70;;;;;;4971896;28;20586;-76
2022/06/23 10:03:03;;;;;;;1.43;0.80;;;33.10;60.10;;;;;;4974298;28;20284;-77
2022/06/23 10:06:09;;;;;;;2.50;1.13;;;33.00;61.60;;;;;;4960251;28;20745;-78
2022/06/23 10:08:45;;;;;;;1.43;0.80;;;32.90;60.80;;;;;;4961480;28;20230;-78
2022/06/23 10:11:39;;;;;;;1.42;0.90;;;32.90;60.90;;;;;;4969493;28;20906;-78
2022/06/23 10:14:26;;;;;;;1.40;0.80;;;32.80;61.20;;;;;;4982106;28;20321;-80
2022/06/23 10:17:20;;;;;;;1.40;0.80;;;32.80;61.00;;;;;;4972129;28;20256;-78
2022/06/23 10:20:14;;;;;;;1.40;0.80;;;33.20;61.20;;;;;;4976496;28;20442;-77
2022/06/23 10:23:05;;;;;;;1.42;0.80;;;33.60;59.80;;;;;;4970326;28;20206;-78
2022/06/23 10:25:51;;;;;;;1.40;0.80;;;33.70;59.40;;;;;;4978606;28;20226;-79
2022/06/23 10:29:00;;;;;;;1.42;0.80;;;33.60;59.80;;;;;;4964059;28;20238;-79
2022/06/23 10:31:54;;;;;;;1.45;0.80;;;33.60;59.80;;;;;;4972104;28;20202;-77
2022/06/23 10:34:35;;;;;;;1.40;0.80;;;33.80;59.10;;;;;;4970595;28;20566;-79
2022/06/23 10:37:24;;;;;;;1.40;0.80;;;33.90;59.60;;;;;;4974741;28;20237;-77
2022/06/23 10:40:15;;;;;;;1.40;0.80;;;34.30;58.20;;;;;;4975595;28;20301;-77
2022/06/23 10:43:08;;;;;;;1.40;0.80;;;34.50;58.10;;;;;;4970623;28;20205;-78
2022/06/23 10:45:43;;;;;;;1.45;0.88;;;34.40;57.40;;;;;;4972848;28;20241;-77
2022/06/23 10:48:39;;;;;;;1.50;1.00;;;34.50;56.20;;;;;;4979012;28;20237;-78
2022/06/23 10:51:16;;;;;;;1.40;0.80;;;34.30;57.40;;;;;;4972297;28;20247;-79
2022/06/23 10:54:28;;;;;;;1.50;0.90;;;34.40;57.80;;;;;;4974682;28;20296;-79
2022/06/23 10:57:18;;;;;;;1.42;0.80;;;34.60;56.80;;;;;;4901984;29;20258;-79
2022/06/23 11:00:06;;;;;;;1.40;0.80;;;34.50;55.80;;;;;;4971053;28;20233;-78
2022/06/23 11:02:53;;;;;;;1.40;0.80;;;34.30;56.70;;;;;;4967577;28;20237;-79
2022/06/23 11:05:55;;;;;;;1.70;1.23;;;34.40;56.90;;;;;;4978485;28;20256;-78
2022/06/23 11:08:43;;;;;;;1.45;1.02;;;34.20;56.10;;;;;;4957049;28;20202;-78
2022/06/23 11:11:28;;;;;;;1.40;0.80;;;34.20;57.60;;;;;;4960060;28;20628;-77
2022/06/23 11:14:05;;;;;;;1.50;1.00;;;34.60;57.60;;;;;;4982255;28;20237;-78
2022/06/23 11:16:39;;;;;;;1.40;0.80;;;34.90;56.70;;;;;;4974118;28;20212;-79
2022/06/23 11:19:18;;;;;;;1.40;0.80;;;35.40;55.70;;;;;;4974525;28;20225;-79
2022/06/23 11:21:59;;;;;;;1.40;0.80;;;35.60;56.30;;;;;;4964357;28;20229;-77
2022/06/23 11:24:36;;;;;;;1.88;1.10;;;35.90;54.70;;;;;;4973802;28;20441;-79
2022/06/23 11:27:14;;;;;;;1.40;0.80;;;35.40;55.40;;;;;;4975210;28;20466;-79
2022/06/23 11:30:04;;;;;;;1.38;0.80;;;35.00;56.20;;;;;;4976467;28;20202;-79
2022/06/23 11:32:43;;;;;;;1.40;0.80;;;34.90;57.10;;;;;;4979771;28;20240;-79
2022/06/23 11:35:37;;;;;;;1.40;1.00;;;34.80;56.90;;;;;;4976044;28;20233;-78
2022/06/23 11:38:18;;;;;;;1.38;0.80;;;34.90;56.10;;;;;;4971769;28;20209;-77
2022/06/23 11:41:15;;;;;;;1.42;0.88;;;35.00;56.90;;;;;;4976832;28;20206;-79
2022/06/23 11:44:02;;;;;;;1.40;0.80;;;35.50;56.20;;;;;;4970158;28;20242;-78
2022/06/23 11:46:35;;;;;;;1.40;0.90;;;36.10;55.30;;;;;;4967530;28;20229;-77
2022/06/23 11:49:32;;;;;;;1.40;0.80;;;36.40;54.40;;;;;;4985434;28;20202;-80
2022/06/23 11:52:15;;;;;;;1.40;0.80;;;36.20;54.50;;;;;;4969644;28;20251;-79
2022/06/23 11:55:03;;;;;;;1.40;0.80;;;36.10;54.80;;;;;;4975818;28;20226;-79
2022/06/23 11:57:46;;;;;;;1.40;0.80;;;36.00;55.00;;;;;;4980498;28;20240;-77
2022/06/23 12:00:16;;;;;;;1.40;0.80;;;35.90;54.60;;;;;;4970567;28;20299;-77
2022/06/23 12:03:02;;;;;;;1.40;0.80;;;35.80;55.20;;;;;;4974258;28;20206;-79
2022/06/23 12:05:37;;;;;;;1.40;0.90;;;36.00;55.50;;;;;;4975991;28;20238;-79
2022/06/23 12:08:27;;;;;;;1.48;1.20;;;36.40;54.80;;;;;;4974088;28;20592;-79
2022/06/23 12:10:54;;;;;;;1.40;1.00;;;36.20;54.70;;;;;;4965710;28;20213;-79
2022/06/23 12:13:24;;;;;;;1.40;1.00;;;36.40;55.80;;;;;;4993915;28;20256;-78
2022/06/23 12:15:55;;;;;;;1.40;0.80;;;36.50;54.80;;;;;;4975599;28;20206;-78
2022/06/23 12:18:27;;;;;;;1.40;0.80;;;36.80;54.50;;;;;;4971835;28;20214;-78
2022/06/23 12:21:01;;;;;;;1.40;0.80;;;37.20;55.30;;;;;;4965513;28;20220;-79
2022/06/23 12:23:33;;;;;;;1.38;0.80;;;37.20;54.60;;;;;;4987564;28;20210;-78
2022/06/23 12:26:07;;;;;;;1.40;0.80;;;37.00;54.90;;;;;;4973390;28;20229;-79
2022/06/23 12:28:41;;;;;;;1.40;0.80;;;36.80;54.40;;;;;;4972436;28;20220;-78
2022/06/23 12:31:25;;;;;;;1.40;0.80;;;36.90;55.60;;;;;;4963096;28;20245;-79
2022/06/23 12:34:00;;;;;;;1.40;0.90;;;36.90;54.40;;;;;;4966955;28;20222;-79
2022/06/23 12:36:35;;;;;;;1.40;0.80;;;36.80;54.20;;;;;;4972659;28;20216;-79
2022/06/23 12:39:08;;;;;;;1.40;0.80;;;36.70;55.10;;;;;;4970750;28;20221;-77
2022/06/23 12:41:39;;;;;;;1.50;1.00;;;36.60;54.80;;;;;;4971201;28;20303;-79
2022/06/23 12:44:18;;;;;;;1.40;0.80;;;35.90;56.10;;;;;;4981183;28;20233;-79
2022/06/23 12:46:54;;;;;;;1.40;0.80;;;35.60;56.10;;;;;;4971698;28;20225;-79
2022/06/23 12:49:54;;;;;;;1.40;0.80;;;35.10;55.80;;;;;;4975748;28;20202;-78
2022/06/23 12:52:37;;;;;;;1.40;0.80;;;35.20;56.70;;;;;;4974774;28;20684;-79
2022/06/23 12:55:17;;;;;;;1.40;0.80;;;35.60;56.50;;;;;;4973251;28;20232;-78
2022/06/23 12:57:59;;;;;;;1.38;0.80;;;35.70;57.10;;;;;;4977350;28;20233;-78
2022/06/23 13:00:45;;;;;;;1.40;0.80;;;35.80;56.20;;;;;;4974043;28;20313;-79
2022/06/23 13:03:20;;;;;;;1.40;0.80;;;36.20;55.90;;;;;;4958371;28;20778;-79
2022/06/23 13:05:52;;;;;;;1.40;0.80;;;36.00;55.40;;;;;;4973731;28;20232;-78
2022/06/23 13:08:23;;;;;;;1.40;0.80;;;35.40;55.70;;;;;;4973156;28;20608;-76
2022/06/23 13:10:56;;;;;;;1.40;0.80;;;34.90;57.30;;;;;;4958600;28;20198;-75
2022/06/23 13:13:27;;;;;;;1.40;0.80;;;34.60;58.00;;;;;;4981179;28;20216;-75
2022/06/23 13:15:58;;;;;;;1.40;0.80;;;34.70;58.20;;;;;;4959829;28;20206;-75
2022/06/23 13:18:30;;;;;;;1.40;0.80;;;34.40;57.80;;;;;;4981301;28;20198;-75
2022/06/23 13:21:06;;;;;;;1.50;1.08;;;34.20;58.40;;;;;;4959195;28;20226;-75
2022/06/23 13:23:37;;;;;;;1.40;0.80;;;34.20;58.30;;;;;;4967890;28;20237;-75
2022/06/23 13:26:12;;;;;;;1.40;0.80;;;34.70;57.50;;;;;;4968987;28;20269;-75
2022/06/23 13:28:44;;;;;;;1.40;0.80;;;35.20;57.00;;;;;;4962155;28;20213;-75
2022/06/23 13:31:17;;;;;;;1.40;0.80;;;35.50;57.10;;;;;;4957450;28;20325;-75
2022/06/23 13:33:50;;;;;;;1.38;0.80;;;35.70;56.80;;;;;;4966166;28;20313;-74
2022/06/23 13:36:24;;;;;;;1.40;0.90;;;35.60;57.00;;;;;;4961802;28;20260;-75
2022/06/23 13:39:01;;;;;;;1.40;0.80;;;35.50;56.70;;;;;;4978262;28;20711;-75
2022/06/23 13:41:35;;;;;;;1.40;0.80;;;35.50;57.00;;;;;;4954211;28;20225;-75
2022/06/23 13:44:10;;;;;;;1.40;0.80;;;35.60;56.50;;;;;;4969702;28;20233;-75